sensor_id;sensor_type;location;lat;lon;timestamp;P1;durP1;ratioP1;P2;durP2;ratioP2
14139;SDS011;7150;53.514;9.988;2023-07-20T00:00:44;2.63;;;2.00;;
14139;SDS011;7150;53.514;9.988;2023-07-20T00:03:13;4.20;;;2.27;;
14139;SDS011;7150;53.514;9.988;2023-07-20T00:05:44;3.93;;;2.00;;
14139;SDS011;7150;53.514;9.988;2023-07-20T00:08:09;3.00;;;1.60;;
14139;SDS011;7150;53.514;9.988;2023-07-20T00:10:35;3.47;;;1.70;;
14139;SDS011;7150;53.514;9.988;2023-07-20T00:13:00;3.13;;;1.63;;
14139;SDS011;7150;53.514;9.988;2023-07-20T00:15:26;2.43;;;2.00;;
14139;SDS011;7150;53.514;9.988;2023-07-20T00:17:51;1.50;;;1.40;;
14139;SDS011;7150;53.514;9.988;2023-07-20T00:20:17;4.33;;;1.77;;
14139;SDS011;7150;53.514;9.988;2023-07-20T00:22:42;2.43;;;1.73;;
14139;SDS011;7150;53.514;9.988;2023-07-20T00:25:08;3.23;;;1.57;;
14139;SDS011;7150;53.514;9.988;2023-07-20T00:27:36;3.57;;;1.80;;
14139;SDS011;7150;53.514;9.988;2023-07-20T00:30:02;5.43;;;2.30;;
14139;SDS011;7150;53.514;9.988;2023-07-20T00:32:29;3.43;;;1.80;;
14139;SDS011;7150;53.514;9.988;2023-07-20T00:34:54;3.07;;;1.70;;
14139;SDS011;7150;53.514;9.988;2023-07-20T00:37:19;3.00;;;1.70;;
14139;SDS011;7150;53.514;9.988;2023-07-20T00:39:45;3.93;;;1.80;;
14139;SDS011;7150;53.514;9.988;2023-07-20T00:42:10;2.80;;;1.70;;
14139;SDS011;7150;53.514;9.988;2023-07-20T00:44:36;2.27;;;1.43;;
14139;SDS011;7150;53.514;9.988;2023-07-20T00:47:01;1.87;;;1.60;;
14139;SDS011;7150;53.514;9.988;2023-07-20T00:49:27;4.73;;;1.80;;
14139;SDS011;7150;53.514;9.988;2023-07-20T00:51:52;2.13;;;1.90;;
14139;SDS011;7150;53.514;9.988;2023-07-20T00:54:18;2.73;;;1.80;;
14139;SDS011;7150;53.514;9.988;2023-07-20T00:56:44;2.30;;;1.77;;
14139;SDS011;7150;53.514;9.988;2023-07-20T00:59:09;3.70;;;2.00;;
14139;SDS011;7150;53.514;9.988;2023-07-20T01:01:36;1.53;;;1.43;;
14139;SDS011;7150;53.514;9.988;2023-07-20T01:04:01;2.37;;;2.17;;
14139;SDS011;7150;53.514;9.988;2023-07-20T01:06:29;3.03;;;1.90;;
14139;SDS011;7150;53.514;9.988;2023-07-20T01:09:26;4.07;;;2.07;;
14139;SDS011;7150;53.514;9.988;2023-07-20T01:12:10;4.33;;;1.87;;
14139;SDS011;7150;53.514;9.988;2023-07-20T01:14:43;3.73;;;1.93;;
14139;SDS011;7150;53.514;9.988;2023-07-20T01:17:09;2.10;;;1.90;;
14139;SDS011;7150;53.514;9.988;2023-07-20T01:19:35;4.50;;;2.37;;
14139;SDS011;7150;53.514;9.988;2023-07-20T01:22:09;3.30;;;2.30;;
14139;SDS011;7150;53.514;9.988;2023-07-20T01:33:08;2.90;;;1.90;;
14139;SDS011;7150;53.514;9.988;2023-07-20T01:35:36;2.10;;;1.90;;
14139;SDS011;7150;53.514;9.988;2023-07-20T01:38:03;4.90;;;2.50;;
14139;SDS011;7150;53.514;9.988;2023-07-20T01:40:29;3.60;;;2.40;;
14139;SDS011;7150;53.514;9.988;2023-07-20T01:42:55;3.40;;;2.50;;
14139;SDS011;7150;53.514;9.988;2023-07-20T01:45:21;2.83;;;2.10;;
14139;SDS011;7150;53.514;9.988;2023-07-20T01:47:46;3.30;;;2.53;;
14139;SDS011;7150;53.514;9.988;2023-07-20T01:50:12;3.90;;;2.47;;
14139;SDS011;7150;53.514;9.988;2023-07-20T01:52:37;3.03;;;2.27;;
14139;SDS011;7150;53.514;9.988;2023-07-20T01:55:03;4.77;;;2.40;;
14139;SDS011;7150;53.514;9.988;2023-07-20T01:57:29;2.63;;;2.30;;
14139;SDS011;7150;53.514;9.988;2023-07-20T01:59:55;4.10;;;2.87;;
14139;SDS011;7150;53.514;9.988;2023-07-20T02:02:20;3.57;;;2.83;;
14139;SDS011;7150;53.514;9.988;2023-07-20T02:04:48;5.07;;;2.80;;
14139;SDS011;7150;53.514;9.988;2023-07-20T02:07:13;6.03;;;2.93;;
14139;SDS011;7150;53.514;9.988;2023-07-20T02:09:39;3.87;;;3.37;;
14139;SDS011;7150;53.514;9.988;2023-07-20T02:12:04;3.33;;;3.00;;
14139;SDS011;7150;53.514;9.988;2023-07-20T02:14:30;3.87;;;2.93;;
14139;SDS011;7150;53.514;9.988;2023-07-20T02:16:55;6.53;;;3.73;;
14139;SDS011;7150;53.514;9.988;2023-07-20T02:19:24;4.57;;;3.20;;
14139;SDS011;7150;53.514;9.988;2023-07-20T02:21:51;4.23;;;3.57;;
14139;SDS011;7150;53.514;9.988;2023-07-20T02:24:16;7.53;;;3.50;;
14139;SDS011;7150;53.514;9.988;2023-07-20T02:26:42;5.47;;;3.20;;
14139;SDS011;7150;53.514;9.988;2023-07-20T02:29:08;3.20;;;2.77;;
14139;SDS011;7150;53.514;9.988;2023-07-20T02:31:35;3.17;;;2.70;;
14139;SDS011;7150;53.514;9.988;2023-07-20T02:34:02;3.20;;;2.80;;
14139;SDS011;7150;53.514;9.988;2023-07-20T02:36:28;4.87;;;2.90;;
14139;SDS011;7150;53.514;9.988;2023-07-20T02:38:53;5.27;;;3.20;;
14139;SDS011;7150;53.514;9.988;2023-07-20T02:41:19;3.77;;;3.10;;
14139;SDS011;7150;53.514;9.988;2023-07-20T02:43:45;3.33;;;2.80;;
14139;SDS011;7150;53.514;9.988;2023-07-20T02:46:10;4.40;;;3.07;;
14139;SDS011;7150;53.514;9.988;2023-07-20T02:48:36;3.37;;;3.00;;
14139;SDS011;7150;53.514;9.988;2023-07-20T02:51:02;2.33;;;2.13;;
14139;SDS011;7150;53.514;9.988;2023-07-20T02:53:27;3.43;;;2.80;;
14139;SDS011;7150;53.514;9.988;2023-07-20T02:55:52;3.67;;;2.60;;
14139;SDS011;7150;53.514;9.988;2023-07-20T02:58:18;5.67;;;2.60;;
14139;SDS011;7150;53.514;9.988;2023-07-20T03:00:44;3.13;;;1.70;;
14139;SDS011;7150;53.514;9.988;2023-07-20T03:03:09;3.37;;;2.10;;
14139;SDS011;7150;53.514;9.988;2023-07-20T03:05:40;2.93;;;1.70;;
14139;SDS011;7150;53.514;9.988;2023-07-20T03:08:06;5.70;;;1.70;;
14139;SDS011;7150;53.514;9.988;2023-07-20T03:10:31;2.77;;;1.67;;
14139;SDS011;7150;53.514;9.988;2023-07-20T03:12:57;2.77;;;1.80;;
14139;SDS011;7150;53.514;9.988;2023-07-20T03:15:23;3.50;;;2.60;;
14139;SDS011;7150;53.514;9.988;2023-07-20T03:17:48;2.43;;;2.20;;
14139;SDS011;7150;53.514;9.988;2023-07-20T03:20:14;2.80;;;1.83;;
14139;SDS011;7150;53.514;9.988;2023-07-20T03:22:39;2.90;;;1.87;;
14139;SDS011;7150;53.514;9.988;2023-07-20T03:25:05;3.87;;;2.03;;
14139;SDS011;7150;53.514;9.988;2023-07-20T03:27:31;4.37;;;2.07;;
14139;SDS011;7150;53.514;9.988;2023-07-20T03:29:56;3.33;;;1.87;;
14139;SDS011;7150;53.514;9.988;2023-07-20T03:32:22;3.50;;;2.13;;
14139;SDS011;7150;53.514;9.988;2023-07-20T03:34:47;3.83;;;2.10;;
14139;SDS011;7150;53.514;9.988;2023-07-20T03:37:13;2.50;;;2.30;;
14139;SDS011;7150;53.514;9.988;2023-07-20T03:39:38;2.37;;;2.13;;
14139;SDS011;7150;53.514;9.988;2023-07-20T03:42:04;3.43;;;2.33;;
14139;SDS011;7150;53.514;9.988;2023-07-20T03:44:31;4.30;;;2.00;;
14139;SDS011;7150;53.514;9.988;2023-07-20T03:46:56;4.27;;;2.07;;
14139;SDS011;7150;53.514;9.988;2023-07-20T03:49:22;2.30;;;1.77;;
14139;SDS011;7150;53.514;9.988;2023-07-20T03:51:47;3.73;;;2.00;;
14139;SDS011;7150;53.514;9.988;2023-07-20T03:54:13;2.60;;;2.13;;
14139;SDS011;7150;53.514;9.988;2023-07-20T03:56:38;2.67;;;2.47;;
14139;SDS011;7150;53.514;9.988;2023-07-20T03:59:04;2.87;;;2.17;;
14139;SDS011;7150;53.514;9.988;2023-07-20T04:01:30;4.97;;;2.33;;
14139;SDS011;7150;53.514;9.988;2023-07-20T04:03:55;3.33;;;2.57;;
14139;SDS011;7150;53.514;9.988;2023-07-20T04:06:21;3.53;;;2.63;;
14139;SDS011;7150;53.514;9.988;2023-07-20T04:08:47;2.73;;;2.53;;
14139;SDS011;7150;53.514;9.988;2023-07-20T04:11:12;2.80;;;2.17;;
14139;SDS011;7150;53.514;9.988;2023-07-20T04:13:38;4.27;;;2.63;;
14139;SDS011;7150;53.514;9.988;2023-07-20T04:16:04;4.10;;;2.73;;
14139;SDS011;7150;53.514;9.988;2023-07-20T04:18:29;3.60;;;2.93;;
14139;SDS011;7150;53.514;9.988;2023-07-20T04:20:55;3.00;;;2.70;;
14139;SDS011;7150;53.514;9.988;2023-07-20T04:23:21;5.37;;;2.60;;
14139;SDS011;7150;53.514;9.988;2023-07-20T04:25:46;4.83;;;2.83;;
14139;SDS011;7150;53.514;9.988;2023-07-20T04:28:12;3.60;;;2.77;;
14139;SDS011;7150;53.514;9.988;2023-07-20T04:30:38;3.97;;;2.90;;
14139;SDS011;7150;53.514;9.988;2023-07-20T04:33:05;4.10;;;2.77;;
14139;SDS011;7150;53.514;9.988;2023-07-20T04:35:46;3.37;;;2.17;;
14139;SDS011;7150;53.514;9.988;2023-07-20T04:38:13;2.97;;;2.00;;
14139;SDS011;7150;53.514;9.988;2023-07-20T04:40:42;3.37;;;2.00;;
14139;SDS011;7150;53.514;9.988;2023-07-20T04:43:11;2.50;;;2.17;;
14139;SDS011;7150;53.514;9.988;2023-07-20T04:45:37;4.70;;;2.23;;
14139;SDS011;7150;53.514;9.988;2023-07-20T04:48:02;2.67;;;2.03;;
14139;SDS011;7150;53.514;9.988;2023-07-20T04:50:29;4.03;;;2.70;;
14139;SDS011;7150;53.514;9.988;2023-07-20T04:52:55;4.53;;;3.57;;
14139;SDS011;7150;53.514;9.988;2023-07-20T04:55:20;3.83;;;3.07;;
14139;SDS011;7150;53.514;9.988;2023-07-20T04:57:46;3.33;;;2.70;;
14139;SDS011;7150;53.514;9.988;2023-07-20T05:00:11;3.33;;;2.80;;
14139;SDS011;7150;53.514;9.988;2023-07-20T05:02:38;2.70;;;2.50;;
14139;SDS011;7150;53.514;9.988;2023-07-20T05:05:03;3.00;;;2.27;;
14139;SDS011;7150;53.514;9.988;2023-07-20T05:07:30;5.33;;;2.50;;
14139;SDS011;7150;53.514;9.988;2023-07-20T05:09:56;2.80;;;2.60;;
14139;SDS011;7150;53.514;9.988;2023-07-20T05:12:22;3.47;;;2.97;;
14139;SDS011;7150;53.514;9.988;2023-07-20T05:14:47;4.33;;;3.20;;
14139;SDS011;7150;53.514;9.988;2023-07-20T05:17:13;3.30;;;2.50;;
14139;SDS011;7150;53.514;9.988;2023-07-20T05:19:38;4.20;;;3.23;;
14139;SDS011;7150;53.514;9.988;2023-07-20T05:22:03;3.87;;;2.70;;
14139;SDS011;7150;53.514;9.988;2023-07-20T05:24:30;4.13;;;3.13;;
14139;SDS011;7150;53.514;9.988;2023-07-20T05:26:56;4.57;;;2.90;;
14139;SDS011;7150;53.514;9.988;2023-07-20T05:29:22;3.30;;;3.00;;
14139;SDS011;7150;53.514;9.988;2023-07-20T05:31:48;6.00;;;3.17;;
14139;SDS011;7150;53.514;9.988;2023-07-20T05:34:13;3.23;;;2.70;;
14139;SDS011;7150;53.514;9.988;2023-07-20T05:36:39;4.90;;;3.20;;
14139;SDS011;7150;53.514;9.988;2023-07-20T05:39:04;5.37;;;3.30;;
14139;SDS011;7150;53.514;9.988;2023-07-20T05:41:30;4.73;;;3.30;;
14139;SDS011;7150;53.514;9.988;2023-07-20T05:43:56;6.03;;;2.93;;
14139;SDS011;7150;53.514;9.988;2023-07-20T05:46:21;4.37;;;3.43;;
14139;SDS011;7150;53.514;9.988;2023-07-20T05:48:46;9.23;;;3.40;;
14139;SDS011;7150;53.514;9.988;2023-07-20T05:51:12;4.70;;;3.50;;
14139;SDS011;7150;53.514;9.988;2023-07-20T05:53:38;4.47;;;3.27;;
14139;SDS011;7150;53.514;9.988;2023-07-20T05:56:03;5.97;;;3.90;;
14139;SDS011;7150;53.514;9.988;2023-07-20T05:58:29;7.83;;;4.13;;
14139;SDS011;7150;53.514;9.988;2023-07-20T06:00:54;4.77;;;3.40;;
14139;SDS011;7150;53.514;9.988;2023-07-20T06:03:20;5.50;;;3.70;;
14139;SDS011;7150;53.514;9.988;2023-07-20T06:05:48;6.07;;;3.60;;
14139;SDS011;7150;53.514;9.988;2023-07-20T06:08:14;6.97;;;3.13;;
14139;SDS011;7150;53.514;9.988;2023-07-20T06:10:40;5.13;;;3.23;;
14139;SDS011;7150;53.514;9.988;2023-07-20T06:13:05;3.97;;;3.00;;
14139;SDS011;7150;53.514;9.988;2023-07-20T06:15:31;6.30;;;2.90;;
14139;SDS011;7150;53.514;9.988;2023-07-20T06:17:59;3.00;;;2.63;;
14139;SDS011;7150;53.514;9.988;2023-07-20T06:20:26;3.00;;;2.50;;
14139;SDS011;7150;53.514;9.988;2023-07-20T06:22:51;4.40;;;2.00;;
14139;SDS011;7150;53.514;9.988;2023-07-20T06:25:17;4.13;;;2.10;;
14139;SDS011;7150;53.514;9.988;2023-07-20T06:27:42;4.07;;;2.40;;
14139;SDS011;7150;53.514;9.988;2023-07-20T06:30:09;4.03;;;2.10;;
14139;SDS011;7150;53.514;9.988;2023-07-20T06:32:35;5.30;;;1.90;;
14139;SDS011;7150;53.514;9.988;2023-07-20T06:35:01;3.90;;;1.70;;
14139;SDS011;7150;53.514;9.988;2023-07-20T06:37:26;2.23;;;1.60;;
14139;SDS011;7150;53.514;9.988;2023-07-20T06:39:52;3.53;;;1.70;;
14139;SDS011;7150;53.514;9.988;2023-07-20T06:42:17;3.43;;;1.80;;
14139;SDS011;7150;53.514;9.988;2023-07-20T06:44:42;2.10;;;1.90;;
14139;SDS011;7150;53.514;9.988;2023-07-20T06:47:08;3.30;;;1.60;;
14139;SDS011;7150;53.514;9.988;2023-07-20T06:49:33;3.00;;;1.70;;
14139;SDS011;7150;53.514;9.988;2023-07-20T06:51:59;4.60;;;1.77;;
14139;SDS011;7150;53.514;9.988;2023-07-20T06:54:24;3.73;;;1.90;;
14139;SDS011;7150;53.514;9.988;2023-07-20T06:56:50;7.07;;;1.90;;
14139;SDS011;7150;53.514;9.988;2023-07-20T06:59:16;4.00;;;1.53;;
14139;SDS011;7150;53.514;9.988;2023-07-20T07:01:41;2.80;;;1.67;;
14139;SDS011;7150;53.514;9.988;2023-07-20T07:04:07;3.73;;;1.53;;
14139;SDS011;7150;53.514;9.988;2023-07-20T07:06:32;2.53;;;1.40;;
14139;SDS011;7150;53.514;9.988;2023-07-20T07:08:58;3.23;;;1.40;;
14139;SDS011;7150;53.514;9.988;2023-07-20T07:11:24;2.50;;;1.43;;
14139;SDS011;7150;53.514;9.988;2023-07-20T07:13:49;4.53;;;1.53;;
14139;SDS011;7150;53.514;9.988;2023-07-20T07:16:16;3.80;;;1.50;;
14139;SDS011;7150;53.514;9.988;2023-07-20T07:18:44;3.43;;;1.70;;
14139;SDS011;7150;53.514;9.988;2023-07-20T07:21:10;3.30;;;1.60;;
14139;SDS011;7150;53.514;9.988;2023-07-20T07:23:37;4.30;;;1.50;;
14139;SDS011;7150;53.514;9.988;2023-07-20T07:26:03;3.67;;;1.70;;
14139;SDS011;7150;53.514;9.988;2023-07-20T07:28:29;9.13;;;1.57;;
14139;SDS011;7150;53.514;9.988;2023-07-20T07:30:55;2.77;;;1.40;;
14139;SDS011;7150;53.514;9.988;2023-07-20T07:33:21;4.43;;;1.53;;
14139;SDS011;7150;53.514;9.988;2023-07-20T07:35:47;10.97;;;2.00;;
14139;SDS011;7150;53.514;9.988;2023-07-20T07:38:14;3.33;;;1.77;;
14139;SDS011;7150;53.514;9.988;2023-07-20T07:40:40;3.37;;;1.50;;
14139;SDS011;7150;53.514;9.988;2023-07-20T07:43:05;2.80;;;1.60;;
14139;SDS011;7150;53.514;9.988;2023-07-20T07:45:33;3.93;;;1.97;;
14139;SDS011;7150;53.514;9.988;2023-07-20T07:48:00;6.50;;;1.90;;
14139;SDS011;7150;53.514;9.988;2023-07-20T07:50:26;2.67;;;1.63;;
14139;SDS011;7150;53.514;9.988;2023-07-20T07:52:52;3.37;;;1.90;;
14139;SDS011;7150;53.514;9.988;2023-07-20T07:55:17;2.83;;;1.53;;
14139;SDS011;7150;53.514;9.988;2023-07-20T07:57:43;2.87;;;1.43;;
14139;SDS011;7150;53.514;9.988;2023-07-20T08:00:08;5.47;;;1.60;;
14139;SDS011;7150;53.514;9.988;2023-07-20T08:02:39;4.47;;;1.70;;
14139;SDS011;7150;53.514;9.988;2023-07-20T08:05:08;2.43;;;1.40;;
14139;SDS011;7150;53.514;9.988;2023-07-20T08:07:33;5.70;;;1.90;;
14139;SDS011;7150;53.514;9.988;2023-07-20T08:09:59;5.47;;;1.53;;
14139;SDS011;7150;53.514;9.988;2023-07-20T08:12:25;5.13;;;1.80;;
14139;SDS011;7150;53.514;9.988;2023-07-20T08:14:51;2.80;;;1.80;;
14139;SDS011;7150;53.514;9.988;2023-07-20T08:17:16;4.17;;;1.90;;
14139;SDS011;7150;53.514;9.988;2023-07-20T08:19:42;4.80;;;2.10;;
14139;SDS011;7150;53.514;9.988;2023-07-20T08:22:09;5.03;;;1.90;;
14139;SDS011;7150;53.514;9.988;2023-07-20T08:24:34;5.50;;;2.27;;
14139;SDS011;7150;53.514;9.988;2023-07-20T08:27:00;6.33;;;2.40;;
14139;SDS011;7150;53.514;9.988;2023-07-20T08:29:25;7.50;;;3.07;;
14139;SDS011;7150;53.514;9.988;2023-07-20T08:31:51;3.20;;;1.90;;
14139;SDS011;7150;53.514;9.988;2023-07-20T08:34:17;6.30;;;2.60;;
14139;SDS011;7150;53.514;9.988;2023-07-20T08:36:42;5.77;;;2.30;;
14139;SDS011;7150;53.514;9.988;2023-07-20T08:39:07;4.07;;;2.10;;
14139;SDS011;7150;53.514;9.988;2023-07-20T08:41:34;3.87;;;1.83;;
14139;SDS011;7150;53.514;9.988;2023-07-20T08:44:00;4.70;;;2.40;;
14139;SDS011;7150;53.514;9.988;2023-07-20T08:46:26;5.80;;;2.57;;
14139;SDS011;7150;53.514;9.988;2023-07-20T08:48:53;4.17;;;2.13;;
14139;SDS011;7150;53.514;9.988;2023-07-20T08:51:19;6.37;;;2.50;;
14139;SDS011;7150;53.514;9.988;2023-07-20T08:53:46;8.13;;;2.60;;
14139;SDS011;7150;53.514;9.988;2023-07-20T08:56:13;7.43;;;2.30;;
14139;SDS011;7150;53.514;9.988;2023-07-20T08:58:41;2.70;;;1.80;;
14139;SDS011;7150;53.514;9.988;2023-07-20T09:01:08;7.80;;;2.90;;
14139;SDS011;7150;53.514;9.988;2023-07-20T09:03:35;5.07;;;2.67;;
14139;SDS011;7150;53.514;9.988;2023-07-20T09:06:04;7.17;;;2.17;;
14139;SDS011;7150;53.514;9.988;2023-07-20T09:08:30;5.10;;;2.20;;
14139;SDS011;7150;53.514;9.988;2023-07-20T09:10:56;6.70;;;2.20;;
14139;SDS011;7150;53.514;9.988;2023-07-20T09:13:21;3.93;;;2.00;;
14139;SDS011;7150;53.514;9.988;2023-07-20T09:15:47;3.00;;;1.80;;
14139;SDS011;7150;53.514;9.988;2023-07-20T09:18:23;5.00;;;1.90;;
14139;SDS011;7150;53.514;9.988;2023-07-20T09:20:52;6.10;;;2.00;;
14139;SDS011;7150;53.514;9.988;2023-07-20T09:23:19;5.57;;;1.57;;
14139;SDS011;7150;53.514;9.988;2023-07-20T09:25:44;7.30;;;2.13;;
14139;SDS011;7150;53.514;9.988;2023-07-20T09:28:15;3.33;;;1.83;;
14139;SDS011;7150;53.514;9.988;2023-07-20T09:30:41;3.90;;;2.20;;
14139;SDS011;7150;53.514;9.988;2023-07-20T09:33:06;8.07;;;1.90;;
14139;SDS011;7150;53.514;9.988;2023-07-20T09:35:43;7.40;;;2.40;;
14139;SDS011;7150;53.514;9.988;2023-07-20T09:38:09;4.93;;;2.30;;
14139;SDS011;7150;53.514;9.988;2023-07-20T09:40:37;6.93;;;1.93;;
14139;SDS011;7150;53.514;9.988;2023-07-20T09:43:07;9.23;;;2.47;;
14139;SDS011;7150;53.514;9.988;2023-07-20T09:45:34;4.80;;;1.60;;
14139;SDS011;7150;53.514;9.988;2023-07-20T09:48:09;6.27;;;2.10;;
14139;SDS011;7150;53.514;9.988;2023-07-20T09:50:39;5.33;;;2.13;;
14139;SDS011;7150;53.514;9.988;2023-07-20T09:53:10;5.10;;;1.77;;
14139;SDS011;7150;53.514;9.988;2023-07-20T09:55:38;3.63;;;2.10;;
14139;SDS011;7150;53.514;9.988;2023-07-20T09:58:05;3.73;;;2.10;;
14139;SDS011;7150;53.514;9.988;2023-07-20T10:00:32;5.53;;;2.23;;
14139;SDS011;7150;53.514;9.988;2023-07-20T10:02:59;2.40;;;1.73;;
14139;SDS011;7150;53.514;9.988;2023-07-20T10:05:28;3.67;;;1.80;;
14139;SDS011;7150;53.514;9.988;2023-07-20T10:08:02;4.37;;;2.20;;
14139;SDS011;7150;53.514;9.988;2023-07-20T10:10:30;3.37;;;1.83;;
14139;SDS011;7150;53.514;9.988;2023-07-20T10:12:57;4.63;;;1.60;;
14139;SDS011;7150;53.514;9.988;2023-07-20T10:15:30;3.23;;;1.70;;
14139;SDS011;7150;53.514;9.988;2023-07-20T10:18:07;3.60;;;1.60;;
14139;SDS011;7150;53.514;9.988;2023-07-20T10:20:39;1.93;;;1.23;;
14139;SDS011;7150;53.514;9.988;2023-07-20T10:23:06;7.50;;;1.50;;
14139;SDS011;7150;53.514;9.988;2023-07-20T10:25:33;4.87;;;1.33;;
14139;SDS011;7150;53.514;9.988;2023-07-20T10:28:03;2.57;;;1.30;;
14139;SDS011;7150;53.514;9.988;2023-07-20T10:30:31;7.87;;;2.00;;
14139;SDS011;7150;53.514;9.988;2023-07-20T10:32:57;5.37;;;1.80;;
14139;SDS011;7150;53.514;9.988;2023-07-20T10:35:22;4.20;;;2.23;;
14139;SDS011;7150;53.514;9.988;2023-07-20T10:37:49;6.07;;;2.37;;
14139;SDS011;7150;53.514;9.988;2023-07-20T10:43:00;5.77;;;2.77;;
14139;SDS011;7150;53.514;9.988;2023-07-20T10:45:37;6.73;;;1.47;;
14139;SDS011;7150;53.514;9.988;2023-07-20T10:48:13;4.07;;;1.30;;
14139;SDS011;7150;53.514;9.988;2023-07-20T10:50:40;6.20;;;1.40;;
14139;SDS011;7150;53.514;9.988;2023-07-20T10:53:11;4.20;;;1.77;;
14139;SDS011;7150;53.514;9.988;2023-07-20T10:55:37;2.93;;;1.10;;
14139;SDS011;7150;53.514;9.988;2023-07-20T10:58:07;2.40;;;1.00;;
14139;SDS011;7150;53.514;9.988;2023-07-20T11:00:34;4.37;;;1.20;;
14139;SDS011;7150;53.514;9.988;2023-07-20T11:03:00;4.20;;;1.77;;
14139;SDS011;7150;53.514;9.988;2023-07-20T11:05:32;1.90;;;1.10;;
14139;SDS011;7150;53.514;9.988;2023-07-20T11:08:06;4.33;;;1.50;;
14139;SDS011;7150;53.514;9.988;2023-07-20T11:10:36;3.30;;;1.60;;
14139;SDS011;7150;53.514;9.988;2023-07-20T11:15:47;1.73;;;1.07;;
14139;SDS011;7150;53.514;9.988;2023-07-20T11:18:22;1.20;;;0.90;;
14139;SDS011;7150;53.514;9.988;2023-07-20T11:20:50;3.00;;;1.37;;
14139;SDS011;7150;53.514;9.988;2023-07-20T11:23:17;1.47;;;0.80;;
14139;SDS011;7150;53.514;9.988;2023-07-20T11:25:44;2.20;;;1.13;;
14139;SDS011;7150;53.514;9.988;2023-07-20T11:28:09;2.37;;;1.40;;
14139;SDS011;7150;53.514;9.988;2023-07-20T11:30:36;3.53;;;1.10;;
14139;SDS011;7150;53.514;9.988;2023-07-20T11:33:03;1.67;;;1.30;;
14139;SDS011;7150;53.514;9.988;2023-07-20T11:35:29;3.07;;;1.40;;
14139;SDS011;7150;53.514;9.988;2023-07-20T11:37:54;1.83;;;0.90;;
14139;SDS011;7150;53.514;9.988;2023-07-20T11:40:20;2.67;;;1.03;;
14139;SDS011;7150;53.514;9.988;2023-07-20T11:42:47;4.03;;;1.33;;
14139;SDS011;7150;53.514;9.988;2023-07-20T11:45:15;8.07;;;2.23;;
14139;SDS011;7150;53.514;9.988;2023-07-20T11:47:42;2.33;;;1.20;;
14139;SDS011;7150;53.514;9.988;2023-07-20T11:50:08;5.27;;;1.40;;
14139;SDS011;7150;53.514;9.988;2023-07-20T11:52:34;5.70;;;1.60;;
14139;SDS011;7150;53.514;9.988;2023-07-20T11:55:00;3.53;;;1.40;;
14139;SDS011;7150;53.514;9.988;2023-07-20T11:57:26;2.57;;;1.53;;
14139;SDS011;7150;53.514;9.988;2023-07-20T12:00:02;3.97;;;1.37;;
14139;SDS011;7150;53.514;9.988;2023-07-20T12:02:33;3.90;;;1.40;;
14139;SDS011;7150;53.514;9.988;2023-07-20T12:04:59;4.87;;;1.27;;
14139;SDS011;7150;53.514;9.988;2023-07-20T12:07:26;4.50;;;1.40;;
14139;SDS011;7150;53.514;9.988;2023-07-20T12:12:34;5.90;;;1.67;;
14139;SDS011;7150;53.514;9.988;2023-07-20T12:15:15;2.70;;;1.23;;
14139;SDS011;7150;53.514;9.988;2023-07-20T12:17:55;3.97;;;1.30;;
14139;SDS011;7150;53.514;9.988;2023-07-20T12:20:29;1.53;;;1.10;;
14139;SDS011;7150;53.514;9.988;2023-07-20T12:22:56;1.40;;;1.10;;
14139;SDS011;7150;53.514;9.988;2023-07-20T12:25:43;3.37;;;1.30;;
14139;SDS011;7150;53.514;9.988;2023-07-20T12:28:14;1.73;;;0.90;;
14139;SDS011;7150;53.514;9.988;2023-07-20T12:30:42;2.97;;;0.80;;
14139;SDS011;7150;53.514;9.988;2023-07-20T12:33:09;1.73;;;1.20;;
14139;SDS011;7150;53.514;9.988;2023-07-20T12:35:35;2.90;;;1.50;;
14139;SDS011;7150;53.514;9.988;2023-07-20T12:38:00;2.83;;;1.03;;
14139;SDS011;7150;53.514;9.988;2023-07-20T12:40:26;1.80;;;1.10;;
14139;SDS011;7150;53.514;9.988;2023-07-20T12:42:52;4.90;;;1.10;;
14139;SDS011;7150;53.514;9.988;2023-07-20T12:45:17;3.80;;;1.50;;
14139;SDS011;7150;53.514;9.988;2023-07-20T12:47:43;3.80;;;1.33;;
14139;SDS011;7150;53.514;9.988;2023-07-20T12:50:09;5.03;;;1.60;;
14139;SDS011;7150;53.514;9.988;2023-07-20T12:52:36;1.90;;;1.17;;
14139;SDS011;7150;53.514;9.988;2023-07-20T12:55:06;3.83;;;1.30;;
14139;SDS011;7150;53.514;9.988;2023-07-20T12:57:36;3.77;;;1.40;;
14139;SDS011;7150;53.514;9.988;2023-07-20T13:00:03;3.03;;;1.20;;
14139;SDS011;7150;53.514;9.988;2023-07-20T13:02:30;4.57;;;1.30;;
14139;SDS011;7150;53.514;9.988;2023-07-20T13:04:57;4.67;;;1.70;;
14139;SDS011;7150;53.514;9.988;2023-07-20T13:07:30;4.33;;;1.43;;
14139;SDS011;7150;53.514;9.988;2023-07-20T13:09:56;2.87;;;1.13;;
14139;SDS011;7150;53.514;9.988;2023-07-20T13:12:24;4.20;;;1.40;;
14139;SDS011;7150;53.514;9.988;2023-07-20T13:14:49;3.17;;;1.23;;
14139;SDS011;7150;53.514;9.988;2023-07-20T13:17:15;3.07;;;1.20;;
14139;SDS011;7150;53.514;9.988;2023-07-20T13:19:40;3.10;;;1.30;;
14139;SDS011;7150;53.514;9.988;2023-07-20T13:22:06;3.87;;;1.07;;
14139;SDS011;7150;53.514;9.988;2023-07-20T13:24:31;2.13;;;0.90;;
14139;SDS011;7150;53.514;9.988;2023-07-20T13:26:57;1.40;;;0.80;;
14139;SDS011;7150;53.514;9.988;2023-07-20T13:29:23;2.47;;;1.20;;
14139;SDS011;7150;53.514;9.988;2023-07-20T13:31:50;2.17;;;1.13;;
14139;SDS011;7150;53.514;9.988;2023-07-20T13:34:15;1.90;;;1.10;;
14139;SDS011;7150;53.514;9.988;2023-07-20T13:36:41;0.97;;;0.87;;
14139;SDS011;7150;53.514;9.988;2023-07-20T13:39:06;2.47;;;1.40;;
14139;SDS011;7150;53.514;9.988;2023-07-20T13:41:32;2.13;;;1.00;;
14139;SDS011;7150;53.514;9.988;2023-07-20T13:43:58;5.20;;;1.30;;
14139;SDS011;7150;53.514;9.988;2023-07-20T13:46:23;3.07;;;1.50;;
14139;SDS011;7150;53.514;9.988;2023-07-20T13:48:49;1.97;;;1.07;;
14139;SDS011;7150;53.514;9.988;2023-07-20T13:51:14;2.33;;;1.17;;
14139;SDS011;7150;53.514;9.988;2023-07-20T13:53:40;2.07;;;1.40;;
14139;SDS011;7150;53.514;9.988;2023-07-20T13:56:05;3.13;;;1.17;;
14139;SDS011;7150;53.514;9.988;2023-07-20T13:58:32;2.93;;;1.10;;
14139;SDS011;7150;53.514;9.988;2023-07-20T14:00:57;4.37;;;1.80;;
14139;SDS011;7150;53.514;9.988;2023-07-20T14:03:23;2.30;;;1.27;;
14139;SDS011;7150;53.514;9.988;2023-07-20T14:05:49;2.07;;;1.10;;
14139;SDS011;7150;53.514;9.988;2023-07-20T14:08:15;1.93;;;1.20;;
14139;SDS011;7150;53.514;9.988;2023-07-20T14:10:40;2.63;;;1.07;;
14139;SDS011;7150;53.514;9.988;2023-07-20T14:13:06;1.33;;;1.13;;
14139;SDS011;7150;53.514;9.988;2023-07-20T14:15:38;3.87;;;1.17;;
14139;SDS011;7150;53.514;9.988;2023-07-20T14:18:04;2.37;;;1.00;;
14139;SDS011;7150;53.514;9.988;2023-07-20T14:20:29;2.23;;;1.50;;
14139;SDS011;7150;53.514;9.988;2023-07-20T14:22:55;4.23;;;1.40;;
14139;SDS011;7150;53.514;9.988;2023-07-20T14:25:21;1.93;;;1.30;;
14139;SDS011;7150;53.514;9.988;2023-07-20T14:27:46;5.53;;;1.60;;
14139;SDS011;7150;53.514;9.988;2023-07-20T14:30:12;1.67;;;1.00;;
14139;SDS011;7150;53.514;9.988;2023-07-20T14:32:38;5.30;;;1.67;;
14139;SDS011;7150;53.514;9.988;2023-07-20T14:35:03;2.90;;;1.30;;
14139;SDS011;7150;53.514;9.988;2023-07-20T14:37:29;1.87;;;0.97;;
14139;SDS011;7150;53.514;9.988;2023-07-20T14:39:55;2.13;;;1.00;;
14139;SDS011;7150;53.514;9.988;2023-07-20T14:42:20;3.07;;;1.20;;
14139;SDS011;7150;53.514;9.988;2023-07-20T14:44:46;4.50;;;1.80;;
14139;SDS011;7150;53.514;9.988;2023-07-20T14:47:11;1.97;;;1.27;;
14139;SDS011;7150;53.514;9.988;2023-07-20T14:49:37;3.43;;;1.47;;
14139;SDS011;7150;53.514;9.988;2023-07-20T14:52:03;2.10;;;1.00;;
14139;SDS011;7150;53.514;9.988;2023-07-20T14:54:29;3.07;;;1.70;;
14139;SDS011;7150;53.514;9.988;2023-07-20T14:56:54;2.53;;;1.07;;
14139;SDS011;7150;53.514;9.988;2023-07-20T14:59:21;1.80;;;1.00;;
14139;SDS011;7150;53.514;9.988;2023-07-20T15:01:46;5.70;;;1.37;;
14139;SDS011;7150;53.514;9.988;2023-07-20T15:04:12;3.87;;;1.40;;
14139;SDS011;7150;53.514;9.988;2023-07-20T15:06:39;1.97;;;1.20;;
14139;SDS011;7150;53.514;9.988;2023-07-20T15:09:05;5.13;;;1.43;;
14139;SDS011;7150;53.514;9.988;2023-07-20T15:11:30;3.60;;;1.30;;
14139;SDS011;7150;53.514;9.988;2023-07-20T15:13:56;5.13;;;1.80;;